createdAt,value
2022-10-22T00:08:11.983Z,13.7
2022-10-22T00:18:11.986Z,13.7
2022-10-22T00:28:36.652Z,13.6
2022-10-22T00:38:11.991Z,13.6
2022-10-22T00:48:11.995Z,13.5
2022-10-22T00:58:12.003Z,13.4
2022-10-22T01:18:36.670Z,13.2
2022-10-22T01:28:12.013Z,13.0
2022-10-22T01:38:12.013Z,12.9
2022-10-22T01:48:36.678Z,12.8
2022-10-22T01:58:12.014Z,12.7
2022-10-22T02:08:12.015Z,12.6
2022-10-22T02:18:12.023Z,12.6
2022-10-22T02:38:12.044Z,12.4
2022-10-22T02:58:12.031Z,12.4
2022-10-22T03:18:12.045Z,12.5
2022-10-22T03:28:12.047Z,12.4
2022-10-22T03:38:12.044Z,12.5
2022-10-22T03:58:12.054Z,12.7
2022-10-22T04:08:12.072Z,12.8
2022-10-22T04:18:12.061Z,12.8
2022-10-22T04:28:12.065Z,13.0
2022-10-22T04:38:36.743Z,13.2
2022-10-22T04:48:36.741Z,13.4
2022-10-22T04:58:12.089Z,13.5
2022-10-22T05:08:36.799Z,13.6
2022-10-22T05:18:12.076Z,13.7
2022-10-22T05:28:36.751Z,13.8
2022-10-22T05:38:12.094Z,13.8
2022-10-22T05:48:12.097Z,14.0
2022-10-22T05:58:12.102Z,14.1
2022-10-22T06:08:16.749Z,14.2
2022-10-22T06:48:12.121Z,14.4
2022-10-22T07:08:12.153Z,14.6
2022-10-22T07:18:12.126Z,14.7
2022-10-22T07:28:12.131Z,14.8
2022-10-22T07:38:12.146Z,14.9
2022-10-22T07:48:12.143Z,15.1
2022-10-22T07:58:12.158Z,15.2
2022-10-22T08:08:12.173Z,15.2
2022-10-22T08:18:12.154Z,15.4
2022-10-22T08:48:12.182Z,16.2
2022-10-22T08:58:12.182Z,16.5
2022-10-22T09:08:12.180Z,16.8
2022-10-22T09:18:12.186Z,17.1
2022-10-22T09:28:12.190Z,17.2
2022-10-22T09:38:36.861Z,17.2
2022-10-22T09:48:12.197Z,17.3
2022-10-22T09:58:12.195Z,17.3
2022-10-22T10:18:12.233Z,17.4
2022-10-22T10:28:12.217Z,17.5
2022-10-22T10:58:12.221Z,18.0
2022-10-22T11:08:12.229Z,18.2
2022-10-22T11:18:12.238Z,18.5
2022-10-22T11:28:12.277Z,18.7
2022-10-22T11:38:12.249Z,19.0
2022-10-22T11:48:12.261Z,19.3
2022-10-22T11:58:12.253Z,19.3
2022-10-22T12:08:14.945Z,19.2
2022-10-22T12:28:12.273Z,19.5
2022-10-22T12:38:12.278Z,19.4
2022-10-22T12:48:12.283Z,19.3
2022-10-22T12:58:12.283Z,19.3
2022-10-22T13:08:12.379Z,19.2
2022-10-22T13:18:12.288Z,19.4
2022-10-22T13:28:12.292Z,19.9
2022-10-22T13:38:12.303Z,20.0
2022-10-22T13:48:12.306Z,20.1
2022-10-22T13:58:12.356Z,20.2
2022-10-22T14:08:12.312Z,20.3
2022-10-22T14:18:12.327Z,20.3
2022-10-22T14:28:12.330Z,20.2
2022-10-22T14:38:12.332Z,20.0
2022-10-22T14:48:12.372Z,19.8
2022-10-22T14:58:12.332Z,19.8
2022-10-22T15:08:12.345Z,19.8
2022-10-22T15:18:12.339Z,19.7
2022-10-22T15:28:12.344Z,19.6
2022-10-22T15:38:12.344Z,19.4
2022-10-22T15:48:14.798Z,19.2
2022-10-22T15:58:12.351Z,18.9
2022-10-22T16:08:12.357Z,18.7
2022-10-22T16:18:12.355Z,18.4
2022-10-22T16:28:12.358Z,18.1
2022-10-22T16:38:12.365Z,17.6
2022-10-22T16:48:12.362Z,17.2
2022-10-22T17:08:12.363Z,16.6
2022-10-22T17:18:12.373Z,16.4
2022-10-22T17:28:12.384Z,16.1
2022-10-22T17:48:12.380Z,15.7
2022-10-22T17:58:12.379Z,15.5
2022-10-22T18:08:12.391Z,15.4
2022-10-22T18:18:12.396Z,15.2
2022-10-22T18:28:12.392Z,15.0
2022-10-22T18:38:12.383Z,14.8
2022-10-22T18:48:12.395Z,14.7
2022-10-22T18:58:12.394Z,14.6
2022-10-22T19:18:12.404Z,14.4
2022-10-22T19:28:12.405Z,14.3
2022-10-22T19:38:37.078Z,14.1
2022-10-22T19:48:12.411Z,14.1
2022-10-22T19:58:12.407Z,14.1
2022-10-22T20:08:12.418Z,14.0
2022-10-22T20:18:12.428Z,14.1
2022-10-22T20:28:37.090Z,14.1
2022-10-22T20:48:12.426Z,14.0
2022-10-22T20:58:12.430Z,13.9
2022-10-22T21:08:12.430Z,13.9
2022-10-22T21:18:12.438Z,13.8
2022-10-22T21:38:12.443Z,13.8
2022-10-22T21:48:12.449Z,13.8
2022-10-22T21:58:12.449Z,13.8
2022-10-22T22:08:12.664Z,13.8
2022-10-22T22:18:12.467Z,13.8
2022-10-22T22:38:12.466Z,13.8
2022-10-22T22:48:12.462Z,13.7
2022-10-22T22:58:12.470Z,13.7
2022-10-22T23:08:12.469Z,13.7
2022-10-22T23:18:12.479Z,13.6
2022-10-22T23:28:12.484Z,13.5
2022-10-22T23:38:12.485Z,13.5
2022-10-22T23:58:12.490Z,13.3
